sensor_id;sensor_type;location;lat;lon;timestamp;temperature;humidity
52725;DHT22;38621;52.830;6.914;2023-02-01T00:01:29;5.30;99.90
52725;DHT22;38621;52.830;6.914;2023-02-01T00:03:55;5.30;99.90
52725;DHT22;38621;52.830;6.914;2023-02-01T00:06:20;5.30;99.90
52725;DHT22;38621;52.830;6.914;2023-02-01T00:08:46;5.40;99.90
52725;DHT22;38621;52.830;6.914;2023-02-01T00:11:12;5.50;99.90
52725;DHT22;38621;52.830;6.914;2023-02-01T00:13:40;5.50;99.90
52725;DHT22;38621;52.830;6.914;2023-02-01T00:16:12;5.50;99.90
52725;DHT22;38621;52.830;6.914;2023-02-01T00:18:38;5.50;99.90
52725;DHT22;38621;52.830;6.914;2023-02-01T00:21:04;5.50;99.90
52725;DHT22;38621;52.830;6.914;2023-02-01T00:23:35;5.60;99.90
52725;DHT22;38621;52.830;6.914;2023-02-01T00:26:02;5.60;99.90
52725;DHT22;38621;52.830;6.914;2023-02-01T00:28:28;5.60;99.90
52725;DHT22;38621;52.830;6.914;2023-02-01T00:31:01;5.70;99.90
52725;DHT22;38621;52.830;6.914;2023-02-01T00:33:28;5.60;99.90
52725;DHT22;38621;52.830;6.914;2023-02-01T00:35:58;5.70;99.90
52725;DHT22;38621;52.830;6.914;2023-02-01T00:38:25;5.60;99.90
52725;DHT22;38621;52.830;6.914;2023-02-01T00:40:51;5.60;99.90
52725;DHT22;38621;52.830;6.914;2023-02-01T00:43:16;5.60;99.90
52725;DHT22;38621;52.830;6.914;2023-02-01T00:45:42;5.60;99.90
52725;DHT22;38621;52.830;6.914;2023-02-01T00:48:07;5.60;99.90
52725;DHT22;38621;52.830;6.914;2023-02-01T00:50:33;5.60;99.90
52725;DHT22;38621;52.830;6.914;2023-02-01T00:52:59;5.60;99.90
52725;DHT22;38621;52.830;6.914;2023-02-01T00:55:25;5.70;99.90
52725;DHT22;38621;52.830;6.914;2023-02-01T00:57:50;5.70;99.90
52725;DHT22;38621;52.830;6.914;2023-02-01T01:00:17;5.70;99.90
52725;DHT22;38621;52.830;6.914;2023-02-01T01:02:42;5.60;99.90
52725;DHT22;38621;52.830;6.914;2023-02-01T01:05:08;5.70;99.90
52725;DHT22;38621;52.830;6.914;2023-02-01T01:07:34;5.60;99.90
52725;DHT22;38621;52.830;6.914;2023-02-01T01:09:59;5.60;99.90
52725;DHT22;38621;52.830;6.914;2023-02-01T01:12:25;5.70;99.90
52725;DHT22;38621;52.830;6.914;2023-02-01T01:14:51;5.70;99.90
52725;DHT22;38621;52.830;6.914;2023-02-01T01:17:17;5.60;99.90
52725;DHT22;38621;52.830;6.914;2023-02-01T01:19:43;5.60;99.90
52725;DHT22;38621;52.830;6.914;2023-02-01T01:22:08;5.60;99.90
52725;DHT22;38621;52.830;6.914;2023-02-01T01:24:34;5.60;99.90
52725;DHT22;38621;52.830;6.914;2023-02-01T01:26:59;5.50;99.90
52725;DHT22;38621;52.830;6.914;2023-02-01T01:29:25;5.50;99.90
52725;DHT22;38621;52.830;6.914;2023-02-01T01:31:51;5.50;99.90
52725;DHT22;38621;52.830;6.914;2023-02-01T01:34:17;5.60;99.90
52725;DHT22;38621;52.830;6.914;2023-02-01T01:36:42;5.60;99.90
52725;DHT22;38621;52.830;6.914;2023-02-01T01:39:08;5.60;99.90
52725;DHT22;38621;52.830;6.914;2023-02-01T01:41:33;5.60;99.90
52725;DHT22;38621;52.830;6.914;2023-02-01T01:44:02;5.70;99.90
52725;DHT22;38621;52.830;6.914;2023-02-01T01:46:31;5.70;99.90
52725;DHT22;38621;52.830;6.914;2023-02-01T01:49:11;5.70;99.90
52725;DHT22;38621;52.830;6.914;2023-02-01T01:51:44;5.70;99.90
52725;DHT22;38621;52.830;6.914;2023-02-01T01:54:30;5.70;99.90
52725;DHT22;38621;52.830;6.914;2023-02-01T01:57:00;5.70;99.90
52725;DHT22;38621;52.830;6.914;2023-02-01T01:59:27;5.70;99.90
52725;DHT22;38621;52.830;6.914;2023-02-01T02:01:55;5.70;99.90
52725;DHT22;38621;52.830;6.914;2023-02-01T02:04:21;5.70;99.90
52725;DHT22;38621;52.830;6.914;2023-02-01T02:06:51;5.70;99.90
52725;DHT22;38621;52.830;6.914;2023-02-01T02:09:20;5.70;99.90
52725;DHT22;38621;52.830;6.914;2023-02-01T02:11:46;5.60;99.90
52725;DHT22;38621;52.830;6.914;2023-02-01T02:14:14;5.60;99.90
52725;DHT22;38621;52.830;6.914;2023-02-01T02:25:21;5.20;99.90
52725;DHT22;38621;52.830;6.914;2023-02-01T02:44:29;5.10;99.90
52725;DHT22;38621;52.830;6.914;2023-02-01T02:53:14;4.90;99.90
52725;DHT22;38621;52.830;6.914;2023-02-01T02:55:59;4.90;99.90
52725;DHT22;38621;52.830;6.914;2023-02-01T02:58:45;4.90;99.90
52725;DHT22;38621;52.830;6.914;2023-02-01T03:01:31;4.90;99.90
52725;DHT22;38621;52.830;6.914;2023-02-01T03:04:15;5.20;99.90
52725;DHT22;38621;52.830;6.914;2023-02-01T03:06:44;4.80;99.90
52725;DHT22;38621;52.830;6.914;2023-02-01T03:09:27;5.20;99.90
52725;DHT22;38621;52.830;6.914;2023-02-01T03:12:12;4.90;99.90
52725;DHT22;38621;52.830;6.914;2023-02-01T03:15:03;5.30;99.90
52725;DHT22;38621;52.830;6.914;2023-02-01T03:17:35;4.90;99.90
52725;DHT22;38621;52.830;6.914;2023-02-01T03:20:04;4.90;99.90
52725;DHT22;38621;52.830;6.914;2023-02-01T03:22:32;4.90;99.90
52725;DHT22;38621;52.830;6.914;2023-02-01T03:25:14;4.90;99.90
52725;DHT22;38621;52.830;6.914;2023-02-01T03:27:57;5.00;99.90
52725;DHT22;38621;52.830;6.914;2023-02-01T03:30:28;5.00;99.90
52725;DHT22;38621;52.830;6.914;2023-02-01T03:32:58;5.10;99.90
52725;DHT22;38621;52.830;6.914;2023-02-01T03:38:24;5.20;99.90
52725;DHT22;38621;52.830;6.914;2023-02-01T03:41:03;5.10;99.90
52725;DHT22;38621;52.830;6.914;2023-02-01T03:43:36;5.10;99.90
52725;DHT22;38621;52.830;6.914;2023-02-01T03:46:07;5.10;99.90
52725;DHT22;38621;52.830;6.914;2023-02-01T03:48:35;5.20;99.90
52725;DHT22;38621;52.830;6.914;2023-02-01T03:51:03;5.20;99.90
52725;DHT22;38621;52.830;6.914;2023-02-01T03:53:31;5.20;99.90
52725;DHT22;38621;52.830;6.914;2023-02-01T03:55:57;5.20;99.90
52725;DHT22;38621;52.830;6.914;2023-02-01T03:58:23;5.20;99.90
52725;DHT22;38621;52.830;6.914;2023-02-01T04:00:59;5.20;99.90
52725;DHT22;38621;52.830;6.914;2023-02-01T04:03:26;5.20;99.90
52725;DHT22;38621;52.830;6.914;2023-02-01T04:05:53;5.10;99.90
52725;DHT22;38621;52.830;6.914;2023-02-01T04:08:20;5.10;99.90
52725;DHT22;38621;52.830;6.914;2023-02-01T04:10:46;5.20;99.90
52725;DHT22;38621;52.830;6.914;2023-02-01T04:13:12;5.00;99.90
52725;DHT22;38621;52.830;6.914;2023-02-01T04:15:38;5.00;99.90
52725;DHT22;38621;52.830;6.914;2023-02-01T04:18:04;5.00;99.90
52725;DHT22;38621;52.830;6.914;2023-02-01T04:20:30;4.90;99.90
52725;DHT22;38621;52.830;6.914;2023-02-01T04:22:56;5.30;99.90
52725;DHT22;38621;52.830;6.914;2023-02-01T04:25:22;5.20;99.90
52725;DHT22;38621;52.830;6.914;2023-02-01T04:27:47;4.90;99.90
52725;DHT22;38621;52.830;6.914;2023-02-01T04:30:13;4.90;99.90
52725;DHT22;38621;52.830;6.914;2023-02-01T04:32:39;4.90;99.90
52725;DHT22;38621;52.830;6.914;2023-02-01T04:35:06;4.80;99.90
52725;DHT22;38621;52.830;6.914;2023-02-01T04:37:32;4.70;99.90
52725;DHT22;38621;52.830;6.914;2023-02-01T04:39:58;4.70;99.90
52725;DHT22;38621;52.830;6.914;2023-02-01T04:42:24;4.90;99.90
52725;DHT22;38621;52.830;6.914;2023-02-01T04:44:50;4.80;99.90
52725;DHT22;38621;52.830;6.914;2023-02-01T04:47:15;4.70;99.90
52725;DHT22;38621;52.830;6.914;2023-02-01T04:49:41;4.80;99.90
52725;DHT22;38621;52.830;6.914;2023-02-01T04:52:07;4.80;99.90
52725;DHT22;38621;52.830;6.914;2023-02-01T04:54:33;5.30;99.90
52725;DHT22;38621;52.830;6.914;2023-02-01T04:56:59;5.10;99.90
52725;DHT22;38621;52.830;6.914;2023-02-01T04:59:26;4.80;99.90
52725;DHT22;38621;52.830;6.914;2023-02-01T05:01:51;4.80;99.90
52725;DHT22;38621;52.830;6.914;2023-02-01T05:04:17;4.80;99.90
52725;DHT22;38621;52.830;6.914;2023-02-01T05:06:46;4.80;99.90
52725;DHT22;38621;52.830;6.914;2023-02-01T05:09:11;4.80;99.90
52725;DHT22;38621;52.830;6.914;2023-02-01T05:11:37;4.90;99.90
52725;DHT22;38621;52.830;6.914;2023-02-01T05:14:21;4.90;99.90
52725;DHT22;38621;52.830;6.914;2023-02-01T05:16:47;5.00;99.90
52725;DHT22;38621;52.830;6.914;2023-02-01T05:19:13;5.00;99.90
52725;DHT22;38621;52.830;6.914;2023-02-01T05:21:39;5.10;99.90
52725;DHT22;38621;52.830;6.914;2023-02-01T05:24:04;5.10;99.90
52725;DHT22;38621;52.830;6.914;2023-02-01T05:26:41;5.00;99.90
52725;DHT22;38621;52.830;6.914;2023-02-01T05:29:08;5.00;99.90
52725;DHT22;38621;52.830;6.914;2023-02-01T05:31:34;5.00;99.90
52725;DHT22;38621;52.830;6.914;2023-02-01T05:34:00;5.40;99.90
52725;DHT22;38621;52.830;6.914;2023-02-01T05:36:26;5.10;99.90
52725;DHT22;38621;52.830;6.914;2023-02-01T05:38:52;5.10;99.90
52725;DHT22;38621;52.830;6.914;2023-02-01T05:41:18;5.40;99.90
52725;DHT22;38621;52.830;6.914;2023-02-01T05:43:43;5.10;99.90
52725;DHT22;38621;52.830;6.914;2023-02-01T05:46:09;5.20;99.90
52725;DHT22;38621;52.830;6.914;2023-02-01T05:48:42;5.30;99.90
52725;DHT22;38621;52.830;6.914;2023-02-01T05:51:08;5.30;99.90
52725;DHT22;38621;52.830;6.914;2023-02-01T05:53:35;5.30;99.90
52725;DHT22;38621;52.830;6.914;2023-02-01T05:56:01;5.30;99.90
52725;DHT22;38621;52.830;6.914;2023-02-01T05:58:27;5.50;99.90
52725;DHT22;38621;52.830;6.914;2023-02-01T06:00:53;5.60;99.90
52725;DHT22;38621;52.830;6.914;2023-02-01T06:03:19;5.40;99.90
52725;DHT22;38621;52.830;6.914;2023-02-01T06:05:45;5.40;99.90
52725;DHT22;38621;52.830;6.914;2023-02-01T06:08:12;5.40;99.90
52725;DHT22;38621;52.830;6.914;2023-02-01T06:10:38;5.50;99.90
52725;DHT22;38621;52.830;6.914;2023-02-01T06:13:04;5.50;99.90
52725;DHT22;38621;52.830;6.914;2023-02-01T06:15:30;5.50;99.90
52725;DHT22;38621;52.830;6.914;2023-02-01T06:17:56;5.50;99.90
52725;DHT22;38621;52.830;6.914;2023-02-01T06:20:21;5.60;99.90
52725;DHT22;38621;52.830;6.914;2023-02-01T06:22:47;5.90;99.90
52725;DHT22;38621;52.830;6.914;2023-02-01T06:25:13;5.70;99.90
52725;DHT22;38621;52.830;6.914;2023-02-01T06:27:39;5.70;99.90
52725;DHT22;38621;52.830;6.914;2023-02-01T06:30:06;5.70;99.90
52725;DHT22;38621;52.830;6.914;2023-02-01T06:32:32;5.70;99.90
52725;DHT22;38621;52.830;6.914;2023-02-01T06:34:57;5.70;99.90
52725;DHT22;38621;52.830;6.914;2023-02-01T06:37:25;5.70;99.90
52725;DHT22;38621;52.830;6.914;2023-02-01T06:39:53;5.60;99.90
52725;DHT22;38621;52.830;6.914;2023-02-01T06:42:18;5.60;99.90
52725;DHT22;38621;52.830;6.914;2023-02-01T06:44:44;5.70;99.90
52725;DHT22;38621;52.830;6.914;2023-02-01T06:47:10;5.70;99.90
52725;DHT22;38621;52.830;6.914;2023-02-01T06:49:35;5.70;99.90
52725;DHT22;38621;52.830;6.914;2023-02-01T06:52:01;5.70;99.90
52725;DHT22;38621;52.830;6.914;2023-02-01T06:54:27;5.70;99.90
52725;DHT22;38621;52.830;6.914;2023-02-01T06:56:53;5.70;99.90
52725;DHT22;38621;52.830;6.914;2023-02-01T06:59:19;5.70;99.90
52725;DHT22;38621;52.830;6.914;2023-02-01T07:01:44;5.70;99.90
52725;DHT22;38621;52.830;6.914;2023-02-01T07:04:11;5.70;99.90
52725;DHT22;38621;52.830;6.914;2023-02-01T07:06:38;5.70;99.90
52725;DHT22;38621;52.830;6.914;2023-02-01T07:09:05;5.80;99.90
52725;DHT22;38621;52.830;6.914;2023-02-01T07:11:30;5.80;99.90
52725;DHT22;38621;52.830;6.914;2023-02-01T07:13:57;5.80;99.90
52725;DHT22;38621;52.830;6.914;2023-02-01T07:16:23;5.80;99.90
52725;DHT22;38621;52.830;6.914;2023-02-01T07:18:50;5.80;99.90
52725;DHT22;38621;52.830;6.914;2023-02-01T07:21:16;5.90;99.90
52725;DHT22;38621;52.830;6.914;2023-02-01T07:23:42;5.90;99.90
52725;DHT22;38621;52.830;6.914;2023-02-01T07:26:12;5.80;99.90
52725;DHT22;38621;52.830;6.914;2023-02-01T07:28:38;5.80;99.90
52725;DHT22;38621;52.830;6.914;2023-02-01T07:33:30;5.80;99.90
52725;DHT22;38621;52.830;6.914;2023-02-01T07:35:56;5.80;99.90
52725;DHT22;38621;52.830;6.914;2023-02-01T07:38:22;5.80;99.90
52725;DHT22;38621;52.830;6.914;2023-02-01T07:40:49;5.90;99.90
52725;DHT22;38621;52.830;6.914;2023-02-01T07:43:15;5.80;99.90
52725;DHT22;38621;52.830;6.914;2023-02-01T07:45:41;5.90;99.90
52725;DHT22;38621;52.830;6.914;2023-02-01T07:48:06;5.90;99.90
52725;DHT22;38621;52.830;6.914;2023-02-01T07:50:32;5.80;99.90
52725;DHT22;38621;52.830;6.914;2023-02-01T07:53:01;5.90;99.90
52725;DHT22;38621;52.830;6.914;2023-02-01T07:55:27;5.90;99.90
52725;DHT22;38621;52.830;6.914;2023-02-01T07:57:57;5.90;99.90
52725;DHT22;38621;52.830;6.914;2023-02-01T08:00:23;6.00;99.90
52725;DHT22;38621;52.830;6.914;2023-02-01T08:03:07;6.00;99.90
52725;DHT22;38621;52.830;6.914;2023-02-01T08:05:33;6.00;99.90
52725;DHT22;38621;52.830;6.914;2023-02-01T08:07:59;6.00;99.90
52725;DHT22;38621;52.830;6.914;2023-02-01T08:10:25;5.40;99.90
52725;DHT22;38621;52.830;6.914;2023-02-01T08:12:50;6.10;99.90
52725;DHT22;38621;52.830;6.914;2023-02-01T08:15:17;6.00;99.90
52725;DHT22;38621;52.830;6.914;2023-02-01T08:17:48;6.00;99.90
52725;DHT22;38621;52.830;6.914;2023-02-01T08:20:14;6.00;99.90
52725;DHT22;38621;52.830;6.914;2023-02-01T08:22:40;6.00;99.90
52725;DHT22;38621;52.830;6.914;2023-02-01T08:25:06;6.00;99.90
52725;DHT22;38621;52.830;6.914;2023-02-01T08:27:36;6.00;99.90
52725;DHT22;38621;52.830;6.914;2023-02-01T08:30:02;6.10;99.90
52725;DHT22;38621;52.830;6.914;2023-02-01T08:32:27;6.10;99.90
52725;DHT22;38621;52.830;6.914;2023-02-01T08:34:53;6.10;99.90
52725;DHT22;38621;52.830;6.914;2023-02-01T08:37:19;6.00;99.90
52725;DHT22;38621;52.830;6.914;2023-02-01T08:39:45;6.10;99.90
52725;DHT22;38621;52.830;6.914;2023-02-01T08:42:11;6.00;99.90
52725;DHT22;38621;52.830;6.914;2023-02-01T08:45:01;6.10;99.90
52725;DHT22;38621;52.830;6.914;2023-02-01T08:47:29;6.00;99.90
52725;DHT22;38621;52.830;6.914;2023-02-01T08:49:55;6.00;99.90
52725;DHT22;38621;52.830;6.914;2023-02-01T08:52:20;6.00;99.90
52725;DHT22;38621;52.830;6.914;2023-02-01T08:54:46;6.00;99.90
52725;DHT22;38621;52.830;6.914;2023-02-01T08:57:12;6.00;99.90
52725;DHT22;38621;52.830;6.914;2023-02-01T08:59:38;6.00;99.90
52725;DHT22;38621;52.830;6.914;2023-02-01T09:02:04;6.10;99.90
52725;DHT22;38621;52.830;6.914;2023-02-01T09:04:30;6.00;99.90
52725;DHT22;38621;52.830;6.914;2023-02-01T09:06:55;6.00;99.90
52725;DHT22;38621;52.830;6.914;2023-02-01T09:09:22;6.00;99.90
52725;DHT22;38621;52.830;6.914;2023-02-01T09:11:48;6.00;99.90
52725;DHT22;38621;52.830;6.914;2023-02-01T09:14:16;6.00;99.90
52725;DHT22;38621;52.830;6.914;2023-02-01T09:16:42;6.00;99.90
52725;DHT22;38621;52.830;6.914;2023-02-01T09:19:07;6.00;99.90
52725;DHT22;38621;52.830;6.914;2023-02-01T09:21:33;6.10;99.90
52725;DHT22;38621;52.830;6.914;2023-02-01T09:23:59;6.00;99.90
52725;DHT22;38621;52.830;6.914;2023-02-01T09:26:25;6.10;99.90
52725;DHT22;38621;52.830;6.914;2023-02-01T09:28:51;6.10;99.90
52725;DHT22;38621;52.830;6.914;2023-02-01T09:31:17;6.10;99.90
52725;DHT22;38621;52.830;6.914;2023-02-01T09:33:43;6.10;99.90
52725;DHT22;38621;52.830;6.914;2023-02-01T09:36:08;6.10;99.90
52725;DHT22;38621;52.830;6.914;2023-02-01T09:38:34;6.10;99.90
52725;DHT22;38621;52.830;6.914;2023-02-01T09:41:00;6.10;99.90
52725;DHT22;38621;52.830;6.914;2023-02-01T09:46:44;6.10;99.90
52725;DHT22;38621;52.830;6.914;2023-02-01T09:49:22;6.20;99.90
52725;DHT22;38621;52.830;6.914;2023-02-01T09:51:51;6.10;99.90
52725;DHT22;38621;52.830;6.914;2023-02-01T09:54:24;6.10;99.90
52725;DHT22;38621;52.830;6.914;2023-02-01T09:57:07;6.10;99.90
52725;DHT22;38621;52.830;6.914;2023-02-01T09:59:49;6.10;99.90
52725;DHT22;38621;52.830;6.914;2023-02-01T10:02:20;6.10;99.90
52725;DHT22;38621;52.830;6.914;2023-02-01T10:04:47;6.10;99.90
52725;DHT22;38621;52.830;6.914;2023-02-01T10:10:12;5.90;99.90
52725;DHT22;38621;52.830;6.914;2023-02-01T10:15:55;5.70;99.90
52725;DHT22;38621;52.830;6.914;2023-02-01T10:18:37;5.60;99.90
52725;DHT22;38621;52.830;6.914;2023-02-01T10:24:25;5.30;99.90
52725;DHT22;38621;52.830;6.914;2023-02-01T10:29:42;5.40;99.90
52725;DHT22;38621;52.830;6.914;2023-02-01T10:32:21;5.20;99.90
52725;DHT22;38621;52.830;6.914;2023-02-01T10:34:57;5.20;99.90
52725;DHT22;38621;52.830;6.914;2023-02-01T10:37:31;5.20;99.90
52725;DHT22;38621;52.830;6.914;2023-02-01T10:40:01;5.30;99.90
52725;DHT22;38621;52.830;6.914;2023-02-01T10:42:28;5.50;99.90
52725;DHT22;38621;52.830;6.914;2023-02-01T11:00:06;5.40;99.90
52725;DHT22;38621;52.830;6.914;2023-02-01T11:02:44;5.30;99.90
52725;DHT22;38621;52.830;6.914;2023-02-01T11:05:10;5.30;99.90
52725;DHT22;38621;52.830;6.914;2023-02-01T11:07:39;5.30;99.90
52725;DHT22;38621;52.830;6.914;2023-02-01T11:10:41;5.30;99.90
52725;DHT22;38621;52.830;6.914;2023-02-01T11:13:15;5.30;99.90
52725;DHT22;38621;52.830;6.914;2023-02-01T11:15:45;5.30;99.90
52725;DHT22;38621;52.830;6.914;2023-02-01T11:18:28;5.30;99.90
52725;DHT22;38621;52.830;6.914;2023-02-01T11:20:54;5.40;99.90
52725;DHT22;38621;52.830;6.914;2023-02-01T11:23:26;5.40;99.90
52725;DHT22;38621;52.830;6.914;2023-02-01T11:26:23;5.40;99.90
52725;DHT22;38621;52.830;6.914;2023-02-01T11:29:14;5.50;99.90
52725;DHT22;38621;52.830;6.914;2023-02-01T11:31:44;5.50;99.90
52725;DHT22;38621;52.830;6.914;2023-02-01T11:34:24;5.50;99.90
52725;DHT22;38621;52.830;6.914;2023-02-01T11:36:51;5.60;99.90
52725;DHT22;38621;52.830;6.914;2023-02-01T11:39:25;5.60;99.90
52725;DHT22;38621;52.830;6.914;2023-02-01T11:42:14;5.60;99.90
52725;DHT22;38621;52.830;6.914;2023-02-01T11:44:42;5.60;99.90
52725;DHT22;38621;52.830;6.914;2023-02-01T11:49:48;5.80;99.90
52725;DHT22;38621;52.830;6.914;2023-02-01T11:52:21;5.80;99.90
52725;DHT22;38621;52.830;6.914;2023-02-01T12:05:53;5.50;99.90
52725;DHT22;38621;52.830;6.914;2023-02-01T12:13:38;5.60;99.90
52725;DHT22;38621;52.830;6.914;2023-02-01T12:16:27;5.70;99.90
52725;DHT22;38621;52.830;6.914;2023-02-01T12:19:00;5.80;99.90
52725;DHT22;38621;52.830;6.914;2023-02-01T12:25:11;5.80;99.90
52725;DHT22;38621;52.830;6.914;2023-02-01T12:31:24;6.00;99.90
52725;DHT22;38621;52.830;6.914;2023-02-01T12:34:25;6.20;99.90
52725;DHT22;38621;52.830;6.914;2023-02-01T12:36:58;6.10;99.90
52725;DHT22;38621;52.830;6.914;2023-02-01T12:42:52;6.00;99.90
52725;DHT22;38621;52.830;6.914;2023-02-01T12:45:42;5.80;99.90
52725;DHT22;38621;52.830;6.914;2023-02-01T12:50:56;5.90;99.90
52725;DHT22;38621;52.830;6.914;2023-02-01T12:56:43;6.00;99.90
52725;DHT22;38621;52.830;6.914;2023-02-01T12:59:20;6.20;99.90
52725;DHT22;38621;52.830;6.914;2023-02-01T13:02:01;6.30;99.90
52725;DHT22;38621;52.830;6.914;2023-02-01T13:07:07;6.50;99.90
52725;DHT22;38621;52.830;6.914;2023-02-01T13:09:56;6.60;99.90
52725;DHT22;38621;52.830;6.914;2023-02-01T13:12:37;6.60;99.90
52725;DHT22;38621;52.830;6.914;2023-02-01T13:15:36;6.60;99.90
52725;DHT22;38621;52.830;6.914;2023-02-01T13:18:03;6.70;99.90
52725;DHT22;38621;52.830;6.914;2023-02-01T13:20:37;6.80;99.90
52725;DHT22;38621;52.830;6.914;2023-02-01T13:23:14;6.80;99.90
52725;DHT22;38621;52.830;6.914;2023-02-01T13:25:48;6.80;99.90
52725;DHT22;38621;52.830;6.914;2023-02-01T13:42:29;6.90;99.90
52725;DHT22;38621;52.830;6.914;2023-02-01T13:47:31;6.80;99.90
52725;DHT22;38621;52.830;6.914;2023-02-01T13:50:00;6.80;99.90
52725;DHT22;38621;52.830;6.914;2023-02-01T13:52:44;6.70;99.90
52725;DHT22;38621;52.830;6.914;2023-02-01T13:57:47;6.70;99.90
52725;DHT22;38621;52.830;6.914;2023-02-01T14:00:34;6.80;99.90
52725;DHT22;38621;52.830;6.914;2023-02-01T14:10:59;6.90;99.90
52725;DHT22;38621;52.830;6.914;2023-02-01T14:13:35;6.90;99.90
52725;DHT22;38621;52.830;6.914;2023-02-01T14:21:32;6.90;99.90
52725;DHT22;38621;52.830;6.914;2023-02-01T14:26:46;6.90;99.90
52725;DHT22;38621;52.830;6.914;2023-02-01T14:36:49;7.10;99.90
52725;DHT22;38621;52.830;6.914;2023-02-01T14:39:30;7.10;99.90
52725;DHT22;38621;52.830;6.914;2023-02-01T14:42:00;7.10;99.90
52725;DHT22;38621;52.830;6.914;2023-02-01T14:44:30;7.10;99.90
52725;DHT22;38621;52.830;6.914;2023-02-01T14:55:26;7.10;99.90
52725;DHT22;38621;52.830;6.914;2023-02-01T14:57:56;7.00;99.90
52725;DHT22;38621;52.830;6.914;2023-02-01T15:00:26;6.90;99.90
52725;DHT22;38621;52.830;6.914;2023-02-01T15:02:53;6.90;99.90
52725;DHT22;38621;52.830;6.914;2023-02-01T15:05:33;6.90;99.90
52725;DHT22;38621;52.830;6.914;2023-02-01T15:08:25;6.90;99.90
52725;DHT22;38621;52.830;6.914;2023-02-01T15:10:52;6.90;99.90
52725;DHT22;38621;52.830;6.914;2023-02-01T15:13:21;6.90;99.90
52725;DHT22;38621;52.830;6.914;2023-02-01T15:16:12;6.80;99.90
52725;DHT22;38621;52.830;6.914;2023-02-01T15:18:39;6.80;99.90
52725;DHT22;38621;52.830;6.914;2023-02-01T15:21:06;6.80;99.90
52725;DHT22;38621;52.830;6.914;2023-02-01T15:23:33;6.80;99.90
52725;DHT22;38621;52.830;6.914;2023-02-01T15:25:59;6.80;99.90
52725;DHT22;38621;52.830;6.914;2023-02-01T15:28:26;6.70;99.90
52725;DHT22;38621;52.830;6.914;2023-02-01T15:33:22;6.80;99.90
52725;DHT22;38621;52.830;6.914;2023-02-01T15:35:53;6.80;99.90
52725;DHT22;38621;52.830;6.914;2023-02-01T15:46:41;6.80;99.90
52725;DHT22;38621;52.830;6.914;2023-02-01T15:49:30;6.70;99.90
52725;DHT22;38621;52.830;6.914;2023-02-01T15:51:59;6.70;99.90
52725;DHT22;38621;52.830;6.914;2023-02-01T15:54:32;6.70;99.90
52725;DHT22;38621;52.830;6.914;2023-02-01T15:57:02;6.70;99.90
52725;DHT22;38621;52.830;6.914;2023-02-01T15:59:32;6.70;99.90
52725;DHT22;38621;52.830;6.914;2023-02-01T16:02:01;6.70;99.90
52725;DHT22;38621;52.830;6.914;2023-02-01T16:04:29;6.70;99.90
52725;DHT22;38621;52.830;6.914;2023-02-01T16:06:58;6.80;99.90
52725;DHT22;38621;52.830;6.914;2023-02-01T16:09:40;6.80;99.90
52725;DHT22;38621;52.830;6.914;2023-02-01T16:14:57;6.80;99.90
52725;DHT22;38621;52.830;6.914;2023-02-01T16:17:23;6.80;99.90
52725;DHT22;38621;52.830;6.914;2023-02-01T16:19:48;6.70;99.90
52725;DHT22;38621;52.830;6.914;2023-02-01T16:22:14;6.70;99.90
52725;DHT22;38621;52.830;6.914;2023-02-01T16:24:40;6.80;99.90
52725;DHT22;38621;52.830;6.914;2023-02-01T16:27:05;6.80;99.90
52725;DHT22;38621;52.830;6.914;2023-02-01T16:29:32;6.70;99.90
52725;DHT22;38621;52.830;6.914;2023-02-01T16:31:59;6.70;99.90
52725;DHT22;38621;52.830;6.914;2023-02-01T16:34:25;6.70;99.90
52725;DHT22;38621;52.830;6.914;2023-02-01T16:36:51;6.60;99.90
52725;DHT22;38621;52.830;6.914;2023-02-01T16:39:20;6.60;99.90
52725;DHT22;38621;52.830;6.914;2023-02-01T16:41:46;6.60;99.90
52725;DHT22;38621;52.830;6.914;2023-02-01T16:44:12;6.70;99.90
52725;DHT22;38621;52.830;6.914;2023-02-01T16:46:43;6.70;99.90
52725;DHT22;38621;52.830;6.914;2023-02-01T16:49:22;6.70;99.90
52725;DHT22;38621;52.830;6.914;2023-02-01T16:51:49;6.70;99.90
52725;DHT22;38621;52.830;6.914;2023-02-01T16:54:18;6.60;99.90
52725;DHT22;38621;52.830;6.914;2023-02-01T16:56:45;6.60;99.90
52725;DHT22;38621;52.830;6.914;2023-02-01T16:59:11;6.60;99.90
52725;DHT22;38621;52.830;6.914;2023-02-01T17:01:38;6.50;99.90
52725;DHT22;38621;52.830;6.914;2023-02-01T17:04:04;6.50;99.90
52725;DHT22;38621;52.830;6.914;2023-02-01T17:06:30;6.50;99.90
52725;DHT22;38621;52.830;6.914;2023-02-01T17:08:58;6.40;99.90
52725;DHT22;38621;52.830;6.914;2023-02-01T17:11:25;6.40;99.90
52725;DHT22;38621;52.830;6.914;2023-02-01T17:13:52;6.40;99.90
52725;DHT22;38621;52.830;6.914;2023-02-01T17:18:50;6.30;99.90
52725;DHT22;38621;52.830;6.914;2023-02-01T17:21:18;6.30;99.90
52725;DHT22;38621;52.830;6.914;2023-02-01T17:23:44;6.30;99.90
52725;DHT22;38621;52.830;6.914;2023-02-01T17:26:10;6.30;99.90
52725;DHT22;38621;52.830;6.914;2023-02-01T17:28:36;6.20;99.90
52725;DHT22;38621;52.830;6.914;2023-02-01T17:31:02;6.20;99.90
52725;DHT22;38621;52.830;6.914;2023-02-01T17:33:36;6.20;99.90
52725;DHT22;38621;52.830;6.914;2023-02-01T17:36:04;6.20;99.90
52725;DHT22;38621;52.830;6.914;2023-02-01T17:38:33;6.20;99.90
52725;DHT22;38621;52.830;6.914;2023-02-01T17:40:59;6.10;99.90
52725;DHT22;38621;52.830;6.914;2023-02-01T17:43:25;6.10;99.90
52725;DHT22;38621;52.830;6.914;2023-02-01T17:46:09;6.20;99.90
52725;DHT22;38621;52.830;6.914;2023-02-01T17:48:35;6.20;99.90
52725;DHT22;38621;52.830;6.914;2023-02-01T17:51:01;6.20;99.90
52725;DHT22;38621;52.830;6.914;2023-02-01T17:53:28;6.10;99.90
52725;DHT22;38621;52.830;6.914;2023-02-01T17:55:54;6.00;99.90
52725;DHT22;38621;52.830;6.914;2023-02-01T17:58:23;6.00;99.90
52725;DHT22;38621;52.830;6.914;2023-02-01T18:00:49;6.00;99.90
52725;DHT22;38621;52.830;6.914;2023-02-01T18:03:25;6.00;99.90
52725;DHT22;38621;52.830;6.914;2023-02-01T18:05:53;6.10;99.90
52725;DHT22;38621;52.830;6.914;2023-02-01T18:08:24;6.10;99.90
52725;DHT22;38621;52.830;6.914;2023-02-01T18:10:52;6.10;99.90
52725;DHT22;38621;52.830;6.914;2023-02-01T18:13:19;6.10;99.90
52725;DHT22;38621;52.830;6.914;2023-02-01T18:15:45;6.00;99.90
52725;DHT22;38621;52.830;6.914;2023-02-01T18:18:10;6.00;99.90
52725;DHT22;38621;52.830;6.914;2023-02-01T18:20:39;5.90;99.90
52725;DHT22;38621;52.830;6.914;2023-02-01T18:23:08;5.90;99.90
52725;DHT22;38621;52.830;6.914;2023-02-01T18:25:37;5.90;99.90
52725;DHT22;38621;52.830;6.914;2023-02-01T18:28:03;6.00;99.90
52725;DHT22;38621;52.830;6.914;2023-02-01T18:30:31;5.90;99.90
52725;DHT22;38621;52.830;6.914;2023-02-01T18:32:58;5.90;99.90
52725;DHT22;38621;52.830;6.914;2023-02-01T18:35:26;5.80;99.90
52725;DHT22;38621;52.830;6.914;2023-02-01T18:37:53;5.80;99.90
52725;DHT22;38621;52.830;6.914;2023-02-01T18:40:29;5.70;99.90
52725;DHT22;38621;52.830;6.914;2023-02-01T18:42:55;5.70;99.90
52725;DHT22;38621;52.830;6.914;2023-02-01T18:45:34;5.70;99.90
52725;DHT22;38621;52.830;6.914;2023-02-01T18:48:01;5.60;99.90
52725;DHT22;38621;52.830;6.914;2023-02-01T18:50:33;5.60;99.90
52725;DHT22;38621;52.830;6.914;2023-02-01T18:53:00;5.50;99.90